createdAt,value
2023-01-15T00:00:24.687Z,7.00
2023-01-15T00:02:56.962Z,7.00
2023-01-15T00:05:27.776Z,7.00
2023-01-15T00:07:58.552Z,7.10
2023-01-15T00:10:29.181Z,7.10
2023-01-15T00:12:59.905Z,7.10
2023-01-15T00:15:30.705Z,7.10
2023-01-15T00:18:01.551Z,7.00
2023-01-15T00:20:32.285Z,7.00
2023-01-15T00:23:02.961Z,6.90
2023-01-15T00:25:51.057Z,6.90
2023-01-15T00:28:21.784Z,6.90
2023-01-15T00:30:52.441Z,6.80
2023-01-15T00:33:23.141Z,6.80
2023-01-15T00:35:54.336Z,6.80
2023-01-15T00:38:24.915Z,6.90
2023-01-15T00:40:55.490Z,6.90
2023-01-15T00:43:26.239Z,6.90
2023-01-15T00:45:56.932Z,6.90
2023-01-15T00:48:27.594Z,6.80
2023-01-15T00:50:58.237Z,6.80
2023-01-15T00:53:28.857Z,6.90
2023-01-15T00:55:59.468Z,6.90
2023-01-15T00:58:30.529Z,6.90
2023-01-15T01:01:02.010Z,6.90
2023-01-15T01:03:32.935Z,6.90
2023-01-15T01:06:05.423Z,7.00
2023-01-15T01:08:36.574Z,7.00
2023-01-15T01:11:10.489Z,7.00
2023-01-15T01:13:41.946Z,7.00
2023-01-15T01:16:26.238Z,7.10
2023-01-15T01:18:57.807Z,7.10
2023-01-15T01:21:29.109Z,7.10
2023-01-15T01:24:00.900Z,7.20
2023-01-15T01:26:32.195Z,7.30
2023-01-15T01:29:03.020Z,7.40
2023-01-15T01:31:33.791Z,7.40
2023-01-15T01:34:04.478Z,7.60
2023-01-15T01:36:36.755Z,7.60
2023-01-15T01:39:08.759Z,7.70
2023-01-15T01:41:39.412Z,7.80
2023-01-15T01:44:29.785Z,7.80
2023-01-15T01:47:01.465Z,7.70
2023-01-15T01:49:32.527Z,7.80
2023-01-15T01:52:06.951Z,7.80
2023-01-15T01:54:39.841Z,7.80
2023-01-15T01:57:11.523Z,7.80
2023-01-15T01:59:42.500Z,7.80
2023-01-15T02:02:13.577Z,7.80
2023-01-15T02:04:45.016Z,7.90
2023-01-15T02:07:15.633Z,7.90
2023-01-15T02:09:46.311Z,7.80
2023-01-15T02:12:20.538Z,7.90
2023-01-15T02:14:57.923Z,7.90
2023-01-15T02:17:32.728Z,7.90
2023-01-15T02:20:14.345Z,7.90
2023-01-15T02:22:48.514Z,7.80
2023-01-15T02:25:22.437Z,7.80
2023-01-15T02:27:56.264Z,7.80
2023-01-15T02:30:30.403Z,7.80
2023-01-15T02:33:03.743Z,7.80
2023-01-15T02:35:38.636Z,7.80
2023-01-15T02:38:12.169Z,7.80
2023-01-15T02:40:45.137Z,7.80
2023-01-15T02:43:18.193Z,7.80
2023-01-15T02:45:52.010Z,7.80
2023-01-15T02:48:25.591Z,7.80
2023-01-15T02:50:59.128Z,7.80
2023-01-15T02:53:31.967Z,7.90
2023-01-15T02:56:05.771Z,7.90
2023-01-15T02:58:38.891Z,7.80
2023-01-15T03:01:13.394Z,7.90
2023-01-15T03:03:48.724Z,7.90
2023-01-15T03:06:22.838Z,7.80
2023-01-15T03:08:53.659Z,7.80
2023-01-15T03:11:24.395Z,7.80
2023-01-15T03:13:58.225Z,7.80
2023-01-15T03:16:39.369Z,7.90
2023-01-15T03:19:16.858Z,7.90
2023-01-15T03:21:51.478Z,7.80
2023-01-15T03:24:25.418Z,7.80
2023-01-15T03:26:56.733Z,7.90
2023-01-15T03:29:31.248Z,7.90
2023-01-15T03:32:02.298Z,7.90
2023-01-15T03:34:37.403Z,7.80
2023-01-15T03:37:07.998Z,7.80
2023-01-15T03:39:38.775Z,7.80
2023-01-15T03:42:17.037Z,7.70
2023-01-15T03:47:36.992Z,7.60
2023-01-15T03:50:11.326Z,7.50
2023-01-15T03:52:46.137Z,7.40
2023-01-15T03:55:19.779Z,7.50
2023-01-15T03:57:54.058Z,7.50
2023-01-15T04:00:27.828Z,7.50
2023-01-15T04:03:00.956Z,7.60
2023-01-15T04:05:32.793Z,7.60
2023-01-15T04:08:04.970Z,7.50
2023-01-15T04:10:35.835Z,7.60
2023-01-15T04:13:07.622Z,7.60
2023-01-15T04:15:38.398Z,7.70
2023-01-15T04:18:09.399Z,7.70
2023-01-15T04:20:40.035Z,7.60
2023-01-15T04:23:10.700Z,7.60
2023-01-15T04:25:41.561Z,7.60
2023-01-15T04:28:13.407Z,7.70
2023-01-15T04:30:49.065Z,7.80
2023-01-15T04:33:19.847Z,7.90
2023-01-15T04:35:50.700Z,7.80
2023-01-15T04:38:21.361Z,7.80
2023-01-15T04:41:09.919Z,7.90
2023-01-15T04:43:58.160Z,7.80
2023-01-15T04:46:29.047Z,7.70
2023-01-15T04:48:59.623Z,7.70
2023-01-15T04:51:30.329Z,7.60
2023-01-15T04:54:02.531Z,7.60
2023-01-15T04:56:33.191Z,7.40
2023-01-15T04:59:04.409Z,7.30
2023-01-15T05:01:35.823Z,7.20
2023-01-15T05:04:07.592Z,7.20
2023-01-15T05:06:38.411Z,7.30
2023-01-15T05:09:09.279Z,7.30
2023-01-15T05:11:58.869Z,7.20
2023-01-15T05:17:07.816Z,7.10
2023-01-15T05:19:38.549Z,7.10
2023-01-15T05:22:10.436Z,7.20
2023-01-15T05:24:41.448Z,7.10
2023-01-15T05:27:12.021Z,7.00
2023-01-15T05:29:42.600Z,7.00
2023-01-15T05:32:13.349Z,7.00
2023-01-15T05:34:44.282Z,7.00
2023-01-15T05:37:14.945Z,6.90
2023-01-15T05:39:45.825Z,6.80
2023-01-15T05:42:16.449Z,6.80
2023-01-15T05:44:47.111Z,6.80
2023-01-15T05:47:17.761Z,6.70
2023-01-15T05:49:50.565Z,6.90
2023-01-15T05:52:21.175Z,6.80
2023-01-15T05:54:51.901Z,6.80
2023-01-15T05:57:22.682Z,6.90
2023-01-15T05:59:54.624Z,7.00
2023-01-15T06:02:25.360Z,7.10
2023-01-15T06:04:56.103Z,7.10
2023-01-15T06:07:26.755Z,7.10
2023-01-15T06:09:57.502Z,7.20
2023-01-15T06:12:28.235Z,7.10
2023-01-15T06:14:58.949Z,7.10
2023-01-15T06:17:29.725Z,7.00
2023-01-15T06:20:00.489Z,7.10
2023-01-15T06:22:31.320Z,7.10
2023-01-15T06:25:02.075Z,7.10
2023-01-15T06:27:32.834Z,7.00
2023-01-15T06:30:03.709Z,7.10
2023-01-15T06:32:34.328Z,7.00
2023-01-15T06:35:05.324Z,7.10
2023-01-15T06:37:35.938Z,7.20
2023-01-15T06:40:09.268Z,7.30
2023-01-15T06:42:57.647Z,7.30
2023-01-15T06:45:46.149Z,7.30
2023-01-15T06:48:17.165Z,7.40
2023-01-15T06:50:47.848Z,7.30
2023-01-15T06:53:18.826Z,7.40
2023-01-15T06:55:52.119Z,7.40
2023-01-15T06:58:23.261Z,7.30
2023-01-15T07:00:56.285Z,7.40
2023-01-15T07:03:27.390Z,7.30
2023-01-15T07:05:58.039Z,7.40
2023-01-15T07:08:28.712Z,7.30
2023-01-15T07:11:04.138Z,7.30
2023-01-15T07:13:34.919Z,7.30
2023-01-15T07:16:08.765Z,7.20
2023-01-15T07:18:39.420Z,7.00
2023-01-15T07:21:10.257Z,7.00
2023-01-15T07:23:41.041Z,6.90
2023-01-15T07:26:11.768Z,6.90
2023-01-15T07:28:42.664Z,6.90
2023-01-15T07:31:13.364Z,6.90
2023-01-15T07:33:44.125Z,7.00
2023-01-15T07:36:14.948Z,7.20
2023-01-15T07:38:45.752Z,7.30
2023-01-15T07:41:34.117Z,7.40
2023-01-15T07:44:32.752Z,7.40
2023-01-15T07:47:21.410Z,7.30
2023-01-15T07:50:02.363Z,7.40
2023-01-15T07:52:33.473Z,7.50
2023-01-15T07:55:04.877Z,7.40
2023-01-15T07:57:35.747Z,7.50
2023-01-15T08:00:08.751Z,7.60
2023-01-15T08:02:39.684Z,7.50
2023-01-15T08:05:13.375Z,7.50
2023-01-15T08:07:45.539Z,7.60
2023-01-15T08:10:16.654Z,7.70
2023-01-15T08:13:05.043Z,7.80
2023-01-15T08:15:38.805Z,7.80
2023-01-15T08:18:09.567Z,7.90
2023-01-15T08:20:40.202Z,7.80
2023-01-15T08:23:10.953Z,7.70
2023-01-15T08:25:41.551Z,7.70
2023-01-15T08:28:13.801Z,7.60
2023-01-15T08:30:44.477Z,7.60
2023-01-15T08:33:15.115Z,7.50
2023-01-15T08:35:45.834Z,7.50
2023-01-15T08:38:16.558Z,7.60
2023-01-15T08:40:59.579Z,7.90
2023-01-15T08:43:48.831Z,8.00
2023-01-15T08:46:19.796Z,8.10
2023-01-15T08:48:50.699Z,8.20
2023-01-15T08:51:21.373Z,8.20
2023-01-15T08:53:51.994Z,8.30
2023-01-15T08:56:22.973Z,8.30
2023-01-15T08:58:53.556Z,8.30
2023-01-15T09:01:24.352Z,8.30
2023-01-15T09:03:55.170Z,8.30
2023-01-15T09:06:25.776Z,8.20
2023-01-15T09:08:56.709Z,8.10
2023-01-15T09:11:27.307Z,8.10
2023-01-15T09:13:57.925Z,8.10
2023-01-15T09:16:30.116Z,8.10
2023-01-15T09:19:00.831Z,8.10
2023-01-15T09:21:31.517Z,8.10
2023-01-15T09:24:03.267Z,8.40
2023-01-15T09:26:36.390Z,8.40
2023-01-15T09:29:09.016Z,8.80
2023-01-15T09:31:39.610Z,9.00
2023-01-15T09:34:11.028Z,9.00
2023-01-15T09:36:41.843Z,9.10
2023-01-15T09:39:13.133Z,8.80
2023-01-15T09:42:08.482Z,8.60
2023-01-15T09:44:52.971Z,8.40
2023-01-15T09:47:27.830Z,8.20
2023-01-15T09:53:03.342Z,8.10
2023-01-15T09:55:35.977Z,8.00
2023-01-15T09:58:07.817Z,8.00
2023-01-15T10:00:41.171Z,7.90
2023-01-15T10:03:18.108Z,7.90
2023-01-15T10:05:54.140Z,7.80
2023-01-15T10:08:27.667Z,7.80
2023-01-15T10:11:01.329Z,7.80
2023-01-15T10:13:35.486Z,7.80
2023-01-15T10:18:47.219Z,7.70
2023-01-15T10:21:24.533Z,7.70
2023-01-15T10:24:02.201Z,7.70
2023-01-15T10:26:38.221Z,7.70
2023-01-15T10:29:13.826Z,7.70
2023-01-15T10:31:53.224Z,7.60
2023-01-15T10:34:56.320Z,7.60
2023-01-15T10:37:30.311Z,7.50
2023-01-15T10:40:14.723Z,7.50
2023-01-15T10:42:51.220Z,7.50
2023-01-15T10:45:25.029Z,7.50
2023-01-15T10:47:59.539Z,7.50
2023-01-15T10:50:30.536Z,7.50
2023-01-15T10:53:07.645Z,7.50
2023-01-15T10:55:41.574Z,7.60
2023-01-15T10:58:15.955Z,7.60
2023-01-15T11:00:50.308Z,7.70
2023-01-15T11:03:24.436Z,7.60
2023-01-15T11:05:55.212Z,7.60
2023-01-15T11:09:07.494Z,7.60
2023-01-15T11:14:17.932Z,7.60
2023-01-15T11:19:40.716Z,7.60
2023-01-15T11:22:14.493Z,7.60
2023-01-15T11:24:54.140Z,7.60
2023-01-15T11:27:27.596Z,7.70
2023-01-15T11:30:00.472Z,7.70
2023-01-15T11:32:34.557Z,7.70
2023-01-15T11:35:13.356Z,7.60
2023-01-15T11:37:44.028Z,7.60
2023-01-15T11:40:24.156Z,7.60
2023-01-15T11:43:12.474Z,7.60
2023-01-15T11:46:08.258Z,7.60
2023-01-15T11:49:04.647Z,7.40
2023-01-15T11:51:40.546Z,7.20
2023-01-15T11:54:15.864Z,7.20
2023-01-15T11:56:48.783Z,7.10
2023-01-15T11:59:21.321Z,7.10
2023-01-15T12:01:57.218Z,6.90
2023-01-15T12:04:39.411Z,7.00
2023-01-15T12:07:14.432Z,7.00
2023-01-15T12:09:52.704Z,7.10
2023-01-15T12:12:29.406Z,6.90
2023-01-15T12:15:16.652Z,6.90
2023-01-15T12:18:14.402Z,6.80
2023-01-15T12:20:57.124Z,6.70
2023-01-15T12:23:55.055Z,6.70
2023-01-15T12:26:29.681Z,6.60
2023-01-15T12:29:08.513Z,6.70
2023-01-15T12:31:42.960Z,6.60
2023-01-15T12:37:02.004Z,6.60
2023-01-15T12:39:35.199Z,6.50
2023-01-15T12:42:26.589Z,6.40
2023-01-15T12:45:04.922Z,6.30
2023-01-15T12:47:41.282Z,6.20
2023-01-15T12:50:36.076Z,6.20
2023-01-15T12:53:10.592Z,6.20
2023-01-15T12:55:45.179Z,6.20
2023-01-15T13:01:01.934Z,6.20
2023-01-15T13:03:36.823Z,6.10
2023-01-15T13:06:09.923Z,5.90
2023-01-15T13:08:43.644Z,5.80
2023-01-15T13:11:15.249Z,5.60
2023-01-15T13:13:48.906Z,5.50
2023-01-15T13:16:23.060Z,5.40
2023-01-15T13:21:38.055Z,5.20
2023-01-15T13:24:20.873Z,5.10
2023-01-15T13:26:57.654Z,5.20
2023-01-15T13:29:33.749Z,5.20
2023-01-15T13:32:09.759Z,5.20
2023-01-15T13:34:44.001Z,5.20
2023-01-15T13:37:20.431Z,5.20
2023-01-15T13:39:53.643Z,5.20
2023-01-15T13:42:33.175Z,5.30
2023-01-15T13:45:09.222Z,5.20
2023-01-15T13:47:44.259Z,5.20
2023-01-15T13:50:20.266Z,5.20
2023-01-15T13:52:51.308Z,5.20
2023-01-15T13:58:04.013Z,5.30
2023-01-15T14:00:39.028Z,5.40
2023-01-15T14:03:28.315Z,5.30
2023-01-15T14:06:01.163Z,5.20
2023-01-15T14:11:39.255Z,5.40
2023-01-15T14:14:50.489Z,5.50
2023-01-15T14:17:48.396Z,5.50
2023-01-15T14:20:35.849Z,5.50
2023-01-15T14:23:19.234Z,5.50
2023-01-15T14:26:06.506Z,5.50
2023-01-15T14:28:50.865Z,5.60
2023-01-15T14:31:43.523Z,5.60
2023-01-15T14:34:24.199Z,5.60
2023-01-15T14:37:00.304Z,5.40
2023-01-15T14:39:44.316Z,5.50
2023-01-15T14:42:36.185Z,5.60
2023-01-15T14:45:10.149Z,5.60
2023-01-15T14:53:36.549Z,5.70
2023-01-15T14:56:14.476Z,5.50
2023-01-15T14:58:51.221Z,5.50
2023-01-15T15:01:45.315Z,5.50
2023-01-15T15:04:26.225Z,5.60
2023-01-15T15:06:58.947Z,5.70
2023-01-15T15:09:36.981Z,5.70
2023-01-15T15:12:20.708Z,5.80
2023-01-15T15:14:57.125Z,5.70
2023-01-15T15:20:29.641Z,5.90
2023-01-15T15:23:04.898Z,5.90
2023-01-15T15:25:39.864Z,5.80
2023-01-15T15:28:13.522Z,5.70
2023-01-15T15:30:47.536Z,5.70
2023-01-15T15:33:22.184Z,5.70
2023-01-15T15:35:56.687Z,5.70
2023-01-15T15:38:28.280Z,5.60
2023-01-15T15:41:01.463Z,5.60
2023-01-15T15:43:52.333Z,5.30
2023-01-15T15:46:49.239Z,5.20
2023-01-15T15:49:20.470Z,5.10
2023-01-15T15:51:52.393Z,5.10
2023-01-15T15:54:26.852Z,4.90
2023-01-15T15:59:39.509Z,4.80
2023-01-15T16:02:20.988Z,4.70
2023-01-15T16:04:53.864Z,4.70
2023-01-15T16:07:29.814Z,4.60
2023-01-15T16:10:03.108Z,4.60
2023-01-15T16:12:37.073Z,4.50
2023-01-15T16:15:15.627Z,4.50
2023-01-15T16:17:47.377Z,4.50
2023-01-15T16:20:20.806Z,4.40
2023-01-15T16:22:55.100Z,4.40
2023-01-15T16:25:30.739Z,4.30
2023-01-15T16:28:02.161Z,4.10
2023-01-15T16:30:33.992Z,4.10
2023-01-15T16:33:07.458Z,4.10
2023-01-15T16:35:38.767Z,3.90
2023-01-15T16:38:17.266Z,4.20
2023-01-15T16:40:49.095Z,3.80
2023-01-15T16:43:23.016Z,3.60
2023-01-15T16:48:56.099Z,3.40
2023-01-15T16:54:34.738Z,3.40
2023-01-15T16:57:07.228Z,3.40
2023-01-15T17:02:48.815Z,3.20
2023-01-15T17:05:26.722Z,3.20
2023-01-15T17:07:57.973Z,3.00
2023-01-15T17:10:31.759Z,3.00
2023-01-15T17:13:03.251Z,2.80
2023-01-15T17:15:41.615Z,2.80
2023-01-15T17:18:31.993Z,2.70
2023-01-15T17:21:03.468Z,2.80
2023-01-15T17:23:38.269Z,2.90
2023-01-15T17:26:10.942Z,2.60
2023-01-15T17:28:41.757Z,2.50
2023-01-15T17:31:17.674Z,2.50
2023-01-15T17:33:50.375Z,2.40
2023-01-15T17:36:21.570Z,2.40
2023-01-15T17:38:52.285Z,2.40
2023-01-15T17:41:24.341Z,2.50
2023-01-15T17:43:55.406Z,2.60
2023-01-15T17:46:26.231Z,2.70
2023-01-15T17:48:57.123Z,2.40
2023-01-15T17:51:29.347Z,2.50
2023-01-15T17:54:00.121Z,2.70
2023-01-15T17:56:58.557Z,2.70
2023-01-15T17:59:46.630Z,2.70
2023-01-15T18:02:36.223Z,2.60
2023-01-15T18:05:38.675Z,2.50
2023-01-15T18:08:12.883Z,2.70
2023-01-15T18:10:43.697Z,2.70
2023-01-15T18:13:14.312Z,2.70
2023-01-15T18:15:45.328Z,2.70
2023-01-15T18:18:17.667Z,2.50
2023-01-15T18:20:48.461Z,2.40
2023-01-15T18:23:19.077Z,2.20
2023-01-15T18:25:49.767Z,2.30
2023-01-15T18:28:20.836Z,2.40
2023-01-15T18:30:51.842Z,2.40
2023-01-15T18:33:22.520Z,2.30
2023-01-15T18:35:54.666Z,2.40
2023-01-15T18:38:25.312Z,2.30
2023-01-15T18:40:56.090Z,2.30
2023-01-15T18:43:44.175Z,2.30
2023-01-15T18:46:33.927Z,2.50
2023-01-15T18:49:05.368Z,2.70
2023-01-15T18:51:36.030Z,2.60
2023-01-15T18:54:08.987Z,2.70
2023-01-15T18:56:39.902Z,2.80
2023-01-15T18:59:11.502Z,2.60
2023-01-15T19:01:43.565Z,2.70
2023-01-15T19:04:14.331Z,2.70
2023-01-15T19:06:44.957Z,2.70
2023-01-15T19:09:16.995Z,2.70
2023-01-15T19:14:43.578Z,2.70
2023-01-15T19:17:35.106Z,2.60
2023-01-15T19:20:08.283Z,2.50
2023-01-15T19:22:56.577Z,2.50
2023-01-15T19:25:28.382Z,2.50
2023-01-15T19:27:59.732Z,2.40
2023-01-15T19:30:32.348Z,2.30
2023-01-15T19:33:03.294Z,2.30
2023-01-15T19:35:35.473Z,2.30
2023-01-15T19:38:08.714Z,2.50
2023-01-15T19:40:42.219Z,2.70
2023-01-15T19:43:32.517Z,2.90
2023-01-15T19:46:21.791Z,2.80
2023-01-15T19:49:11.017Z,2.60
2023-01-15T19:52:00.578Z,2.40
2023-01-15T19:54:48.920Z,2.20
2023-01-15T19:57:22.153Z,2.00
2023-01-15T19:59:52.794Z,2.00
2023-01-15T20:02:24.201Z,2.00
2023-01-15T20:04:54.955Z,1.90
2023-01-15T20:07:25.981Z,2.10
2023-01-15T20:09:56.754Z,2.20
2023-01-15T20:12:45.163Z,2.10
2023-01-15T20:15:16.121Z,2.00
2023-01-15T20:17:46.933Z,2.30
2023-01-15T20:20:19.368Z,2.10
2023-01-15T20:22:52.579Z,2.10
2023-01-15T20:25:23.906Z,2.30
2023-01-15T20:27:55.459Z,2.10
2023-01-15T20:30:27.480Z,2.00
2023-01-15T20:32:59.646Z,2.00
2023-01-15T20:35:32.252Z,1.80
2023-01-15T20:38:03.295Z,1.80
2023-01-15T20:40:35.841Z,2.10
2023-01-15T20:43:24.281Z,2.30
2023-01-15T20:45:56.890Z,2.30
2023-01-15T20:48:45.299Z,1.90
2023-01-15T20:51:18.489Z,2.00
2023-01-15T20:53:51.648Z,2.20
2023-01-15T20:56:22.545Z,2.00
2023-01-15T21:01:32.547Z,1.40
2023-01-15T21:04:03.512Z,1.40
2023-01-15T21:06:34.302Z,1.20
2023-01-15T21:09:06.254Z,1.10
2023-01-15T21:11:36.849Z,1.10
2023-01-15T21:14:07.494Z,1.20
2023-01-15T21:16:38.180Z,1.20
2023-01-15T21:19:08.855Z,1.20
2023-01-15T21:21:39.521Z,1.30
2023-01-15T21:24:10.765Z,1.30
2023-01-15T21:26:41.395Z,1.20
2023-01-15T21:29:12.512Z,1.10
2023-01-15T21:31:43.671Z,1.00
2023-01-15T21:34:14.691Z,1.00
2023-01-15T21:36:45.257Z,1.10
2023-01-15T21:39:17.941Z,1.00
2023-01-15T21:42:08.751Z,1.10
2023-01-15T21:44:40.516Z,1.10
2023-01-15T21:47:13.114Z,1.30
2023-01-15T21:49:44.512Z,1.30
2023-01-15T21:52:17.287Z,1.60
2023-01-15T21:54:50.191Z,1.60
2023-01-15T21:57:22.507Z,1.40
2023-01-15T21:59:53.395Z,1.20
2023-01-15T22:02:24.131Z,1.00
2023-01-15T22:04:54.862Z,0.70
2023-01-15T22:07:25.612Z,0.70
2023-01-15T22:09:56.247Z,0.70
2023-01-15T22:12:45.594Z,0.70
2023-01-15T22:15:16.691Z,0.90
2023-01-15T22:17:48.788Z,1.10
2023-01-15T22:20:20.005Z,1.10
2023-01-15T22:22:50.678Z,1.00
2023-01-15T22:25:22.260Z,0.80
2023-01-15T22:27:54.317Z,0.70
2023-01-15T22:30:24.931Z,0.80
2023-01-15T22:32:55.496Z,1.00
2023-01-15T22:35:27.156Z,1.30
2023-01-15T22:37:57.817Z,1.30
2023-01-15T22:40:28.497Z,0.90
2023-01-15T22:42:59.248Z,0.80
2023-01-15T22:45:29.933Z,0.70
2023-01-15T22:48:00.563Z,0.50
2023-01-15T22:50:31.331Z,0.60
2023-01-15T22:53:01.956Z,0.70
2023-01-15T22:55:32.623Z,0.70
2023-01-15T22:58:03.564Z,0.90
2023-01-15T23:00:34.400Z,0.70
2023-01-15T23:03:09.139Z,0.50
2023-01-15T23:05:39.775Z,0.50
2023-01-15T23:08:10.413Z,0.50
2023-01-15T23:10:44.578Z,0.60
2023-01-15T23:13:15.567Z,0.50
2023-01-15T23:15:46.300Z,0.30
2023-01-15T23:18:17.058Z,0.10
2023-01-15T23:20:47.732Z,0.10
2023-01-15T23:23:18.332Z,0.10
2023-01-15T23:25:50.282Z,0.20
2023-01-15T23:28:20.994Z,0.20
2023-01-15T23:30:51.690Z,0.20
2023-01-15T23:33:22.568Z,0.80
2023-01-15T23:35:53.500Z,0.80
2023-01-15T23:38:24.431Z,0.60
2023-01-15T23:40:55.215Z,0.60
2023-01-15T23:43:43.871Z,0.60
2023-01-15T23:46:41.296Z,0.70
2023-01-15T23:49:13.222Z,0.80
2023-01-15T23:51:43.830Z,0.90
2023-01-15T23:54:15.684Z,0.80
2023-01-15T23:56:46.756Z,0.50
2023-01-15T23:59:17.783Z,0.50
